Time;durP1;ratioP1;P1;durP2;ratioP2;P2;SDS_P1;SDS_P2;PMS_P1;PMS_P2;Temp;Humidity;BMP_temperature;BMP_pressure;BME280_temperature;BME280_humidity;BME280_pressure;Samples;Min_cycle;Max_cycle;Signal;HPM_P1;HPM_P2
2023/06/16 00:01:42;;;;;;;21.75;6.57;;;;;;;18.68;53.31;99329.78;5028387;28;20452;-39
2023/06/16 00:04:08;;;;;;;26.10;7.13;;;;;;;18.70;53.34;99327.88;5030855;28;20509;-37
2023/06/16 00:06:37;;;;;;;20.95;7.25;;;;;;;18.54;53.54;99307.09;5029632;28;20065;-38
2023/06/16 00:09:03;;;;;;;16.02;6.30;;;;;;;18.68;53.77;99328.94;5005504;28;20044;-38
2023/06/16 00:11:29;;;;;;;19.67;7.47;;;;;;;18.67;53.76;99328.09;5010081;28;20532;-38
2023/06/16 00:13:56;;;;;;;16.58;7.10;;;;;;;18.65;53.85;99331.78;5011155;28;20046;-38
2023/06/16 00:16:23;;;;;;;24.25;7.35;;;;;;;18.62;54.09;99327.59;5009686;28;20046;-37
2023/06/16 00:18:52;;;;;;;22.13;6.68;;;;;;;18.56;54.27;99328.88;5009964;28;20042;-46
2023/06/16 00:21:23;;;;;;;13.52;7.20;;;;;;;18.51;54.47;99324.88;5011038;28;20042;-36
2023/06/16 00:23:49;;;;;;;17.80;6.70;;;;;;;18.47;54.43;99328.69;4994226;28;20420;-37
2023/06/16 00:26:15;;;;;;;21.13;7.30;;;;;;;18.40;54.25;99327.44;5011137;28;20048;-38
2023/06/16 00:28:43;;;;;;;20.90;6.60;;;;;;;18.40;54.37;99328.28;4993776;28;20046;-38
2023/06/16 00:31:09;;;;;;;16.08;6.18;;;;;;;18.37;54.48;99335.56;5009620;28;20037;-39
2023/06/16 00:33:35;;;;;;;21.75;7.07;;;;;;;18.35;54.66;99332.19;5010901;28;20619;-38
2023/06/16 00:36:01;;;;;;;20.13;7.00;;;;;;;18.33;54.71;99334.09;5009650;28;20042;-37
2023/06/16 00:38:28;;;;;;;19.35;7.22;;;;;;;18.30;54.79;99329.06;5009330;28;20053;-37
2023/06/16 00:40:54;;;;;;;21.13;6.97;;;;;;;18.26;54.93;99335.50;5010434;28;20076;-38
2023/06/16 00:43:22;;;;;;;16.92;7.18;;;;;;;18.06;54.93;99307.94;4993220;28;20081;-38
2023/06/16 00:45:50;;;;;;;17.58;6.25;;;;;;;18.18;55.16;99331.59;5010880;28;20128;-38
2023/06/16 00:48:16;;;;;;;19.73;7.00;;;;;;;18.15;55.02;99329.19;4976955;28;20069;-39
2023/06/16 00:50:43;;;;;;;25.38;7.20;;;;;;;18.10;55.32;99331.31;5018446;28;20562;-38
2023/06/16 00:53:10;;;;;;;17.05;7.15;;;;;;;18.08;55.31;99337.63;5030148;28;20099;-37
2023/06/16 00:55:36;;;;;;;18.02;7.00;;;;;;;18.06;55.46;99334.25;5012457;28;20533;-38
2023/06/16 00:58:03;;;;;;;20.38;7.05;;;;;;;18.02;55.57;99330.16;5029022;28;20065;-38
2023/06/16 01:00:35;;;;;;;22.38;7.75;;;;;;;18.01;55.63;99346.88;5012208;28;20125;-38
2023/06/16 01:03:04;;;;;;;16.17;7.20;;;;;;;17.98;55.65;99341.84;5028696;28;20080;-46
2023/06/16 01:05:32;;;;;;;21.33;8.30;;;;;;;17.95;55.78;99336.81;5028742;28;20124;-40
2023/06/16 01:08:20;;;;;;;20.25;7.70;;;;;;;17.94;55.94;99349.13;5029348;28;20296;-37
2023/06/16 01:10:53;;;;;;;18.58;7.88;;;;;;;17.93;55.58;99341.34;5008874;28;20088;-38
2023/06/16 01:13:31;;;;;;;21.38;7.43;;;;;;;17.92;55.77;99339.66;4992761;28;20611;-37
2023/06/16 01:15:59;;;;;;;18.05;7.35;;;;;;;17.89;55.78;99340.72;4993689;28;20053;-38
2023/06/16 01:18:27;;;;;;;19.13;7.15;;;;;;;17.88;56.01;99339.03;5029777;28;20041;-37
2023/06/16 01:21:10;;;;;;;16.83;7.55;;;;;;;17.88;56.16;99344.28;5011864;28;20078;-37
2023/06/16 01:23:55;;;;;;;32.83;8.38;;;;;;;17.88;56.20;99346.06;5012086;28;20041;-37
2023/06/16 01:26:22;;;;;;;25.13;7.30;;;;;;;17.89;56.21;99345.13;5028415;28;20037;-37
2023/06/16 01:28:51;;;;;;;19.65;7.80;;;;;;;17.92;56.13;99337.00;5044799;28;20096;-37
2023/06/16 01:31:17;;;;;;;24.75;7.70;;;;;;;17.94;55.95;99338.59;5012033;28;20037;-38
2023/06/16 01:33:45;;;;;;;22.67;7.70;;;;;;;17.98;55.74;99332.16;5028158;28;20041;-38
2023/06/16 01:36:12;;;;;;;18.83;6.97;;;;;;;18.03;55.76;99342.38;4995393;28;20044;-37
2023/06/16 01:38:39;;;;;;;25.08;8.18;;;;;;;18.10;55.73;99333.94;5029411;28;20033;-38
2023/06/16 01:41:05;;;;;;;24.60;7.28;;;;;;;18.16;55.47;99335.31;5011266;28;20456;-38
2023/06/16 01:43:32;;;;;;;17.42;7.70;;;;;;;18.27;55.41;99338.00;5028022;28;20520;-38
2023/06/16 01:45:58;;;;;;;22.10;7.45;;;;;;;18.32;55.38;99332.41;5027996;28;20486;-38
2023/06/16 01:48:24;;;;;;;18.92;7.75;;;;;;;18.43;55.07;99337.72;5028048;28;20120;-38
2023/06/16 01:50:50;;;;;;;20.98;7.65;;;;;;;18.48;54.62;99335.59;5006854;28;20042;-37
2023/06/16 01:53:17;;;;;;;19.52;7.07;;;;;;;18.56;54.59;99331.53;5044191;28;20041;-37
2023/06/16 01:55:50;;;;;;;23.60;7.80;;;;;;;18.62;54.36;99332.88;5024491;28;20034;-38
2023/06/16 01:58:17;;;;;;;21.27;7.40;;;;;;;18.66;54.38;99331.69;5024469;28;20077;-38
2023/06/16 02:01:08;;;;;;;23.60;7.25;;;;;;;18.70;54.34;99332.28;4991472;28;20044;-37
2023/06/16 02:03:43;;;;;;;22.63;7.32;;;;;;;18.73;54.38;99332.94;5018915;28;20046;-37
2023/06/16 02:06:16;;;;;;;23.85;7.53;;;;;;;18.49;54.17;99292.53;4991694;28;20034;-38
2023/06/16 02:08:43;;;;;;;20.83;7.82;;;;;;;18.79;54.22;99336.91;5007751;28;20037;-37
2023/06/16 02:11:09;;;;;;;22.27;7.57;;;;;;;18.68;54.24;99306.09;5024234;28;20068;-39
2023/06/16 02:13:36;;;;;;;17.73;7.68;;;;;;;18.85;54.28;99329.38;4990969;28;20048;-38
2023/06/16 02:16:02;;;;;;;15.57;7.72;;;;;;;18.85;54.19;99334.63;5007821;28;20068;-37
2023/06/16 02:18:32;;;;;;;20.77;7.78;;;;;;;18.92;53.95;99329.75;5007573;28;20037;-37
2023/06/16 02:21:18;;;;;;;20.98;7.75;;;;;;;18.88;54.14;99307.25;5007989;28;20085;-39
2023/06/16 02:23:44;;;;;;;16.98;7.07;;;;;;;18.99;53.99;99321.31;5007686;28;20053;-38
2023/06/16 02:26:10;;;;;;;27.15;7.95;;;;;;;19.02;53.96;99322.84;5023578;28;20568;-38
2023/06/16 02:28:36;;;;;;;23.02;8.60;;;;;;;19.08;53.98;99326.81;5023813;28;20517;-38
2023/06/16 02:31:02;;;;;;;17.83;7.90;;;;;;;19.10;53.95;99328.41;5008677;28;20113;-38
2023/06/16 02:33:28;;;;;;;17.75;7.88;;;;;;;19.16;53.80;99327.06;5008624;28;20539;-37
2023/06/16 02:35:54;;;;;;;19.45;8.13;;;;;;;19.19;53.74;99322.44;4991186;28;20410;-37
2023/06/16 02:38:20;;;;;;;21.20;7.63;;;;;;;19.10;53.66;99295.94;5023971;28;20048;-37
2023/06/16 02:40:46;;;;;;;22.08;8.13;;;;;;;19.26;53.66;99321.00;5023554;28;20061;-37
2023/06/16 02:43:12;;;;;;;22.77;8.18;;;;;;;19.27;53.55;99316.56;5007483;28;20071;-38
2023/06/16 02:45:39;;;;;;;15.55;7.32;;;;;;;19.18;53.45;99304.09;5007230;28;20425;-38
2023/06/16 02:48:05;;;;;;;22.05;7.78;;;;;;;19.32;53.54;99325.81;5007232;28;20133;-38
2023/06/16 02:50:31;;;;;;;17.05;7.85;;;;;;;19.33;53.43;99324.03;5012575;28;20648;-38
2023/06/16 02:53:01;;;;;;;16.05;7.93;;;;;;;19.35;53.22;99322.97;5043383;28;20045;-42
2023/06/16 02:55:27;;;;;;;15.55;7.55;;;;;;;19.35;53.22;99320.31;5043776;28;20064;-37
2023/06/16 02:57:54;;;;;;;16.83;7.80;;;;;;;19.36;53.35;99324.66;5043006;28;20052;-38
2023/06/16 03:00:21;;;;;;;19.88;7.80;;;;;;;19.22;53.19;99301.09;5026749;28;20435;-39
2023/06/16 03:03:21;;;;;;;15.15;7.15;;;;;;;19.34;53.05;99308.09;5014124;28;20053;-37
2023/06/16 03:05:57;;;;;;;15.35;7.18;;;;;;;19.42;53.00;99312.75;5008600;28;20068;-38
2023/06/16 03:08:26;;;;;;;11.38;6.63;;;;;;;19.45;52.88;99323.13;5042881;28;20152;-37
2023/06/16 03:10:52;;;;;;;16.75;7.32;;;;;;;19.47;52.81;99318.56;5026112;28;20037;-37
2023/06/16 03:13:23;;;;;;;20.70;7.78;;;;;;;19.39;52.69;99300.66;5026720;28;20053;-37
2023/06/16 03:15:52;;;;;;;11.73;6.57;;;;;;;19.58;52.57;99323.00;5010648;28;20051;-37
2023/06/16 03:18:18;;;;;;;17.17;7.18;;;;;;;19.48;52.15;99287.75;5026852;28;20052;-37
2023/06/16 03:20:47;;;;;;;17.73;7.72;;;;;;;19.67;52.04;99320.53;5026525;28;20830;-38
2023/06/16 03:23:19;;;;;;;16.10;7.00;;;;;;;19.73;51.95;99327.13;5026686;28;20406;-38
2023/06/16 03:25:47;;;;;;;22.27;7.20;;;;;;;19.64;51.71;99298.81;5028615;28;20037;-38
2023/06/16 03:28:17;;;;;;;16.55;7.55;;;;;;;19.73;51.61;99306.84;5030684;28;20068;-37
2023/06/16 03:30:44;;;;;;;15.85;6.80;;;;;;;19.90;51.60;99318.72;5030543;28;20512;-38
2023/06/16 03:33:12;;;;;;;;;;;;;;;19.96;51.45;99325.31;5030863;28;20460;-38
2023/06/16 03:35:41;;;;;;;18.77;6.97;;;;;;;19.86;51.29;99312.84;5030150;28;19983;-38
2023/06/16 03:38:15;;;;;;;20.70;6.70;;;;;;;20.04;51.06;99331.69;5030399;28;20798;-38
2023/06/16 03:40:43;;;;;;;17.25;7.03;;;;;;;20.10;50.97;99325.06;5030069;28;20088;-38
2023/06/16 03:43:09;;;;;;;10.98;6.25;;;;;;;20.16;50.89;99324.56;5030394;28;20076;-38
2023/06/16 03:45:35;;;;;;;13.18;6.75;;;;;;;20.10;50.74;99303.94;5013817;28;20049;-38
2023/06/16 03:48:01;;;;;;;11.40;6.78;;;;;;;20.18;50.57;99298.91;5013492;28;20574;-37
2023/06/16 03:50:32;;;;;;;13.88;7.22;;;;;;;20.35;50.32;99305.50;5012990;28;20239;-37
2023/06/16 03:52:58;;;;;;;13.68;7.60;;;;;;;20.43;50.16;99313.63;5030163;28;20575;-36
2023/06/16 03:55:24;;;;;;;14.35;6.57;;;;;;;20.52;49.84;99311.09;5013570;28;20037;-39
2023/06/16 03:57:50;;;;;;;13.95;7.20;;;;;;;20.60;49.49;99318.41;5031189;28;20044;-38
2023/06/16 04:00:17;;;;;;;14.35;6.75;;;;;;;20.68;49.69;99318.59;5029825;28;20048;-38
2023/06/16 04:02:51;;;;;;;13.57;6.93;;;;;;;20.73;49.61;99311.13;5029960;28;20129;-39
2023/06/16 04:05:23;;;;;;;15.73;7.00;;;;;;;20.81;49.51;99319.28;5046336;28;20045;-37
2023/06/16 04:07:51;;;;;;;18.58;6.30;;;;;;;20.89;49.43;99310.72;5030185;28;20060;-38
2023/06/16 04:10:18;;;;;;;13.65;6.40;;;;;;;20.96;49.39;99310.09;5010147;28;20128;-39
2023/06/16 04:12:44;;;;;;;16.48;7.30;;;;;;;21.06;48.92;99316.28;5009816;28;20141;-37
2023/06/16 04:15:10;;;;;;;18.05;6.78;;;;;;;21.12;48.79;99313.16;5009682;28;20445;-37
2023/06/16 04:17:36;;;;;;;13.75;6.72;;;;;;;21.01;48.71;99288.56;4993621;28;20037;-38
2023/06/16 04:20:09;;;;;;;13.52;6.03;;;;;;;21.21;48.82;99316.84;5009801;28;20061;-37
2023/06/16 04:22:37;;;;;;;14.35;7.18;;;;;;;21.28;48.58;99314.53;4993158;28;20097;-38
2023/06/16 04:25:05;;;;;;;14.23;5.90;;;;;;;21.22;48.35;99284.16;5009520;28;20052;-38
2023/06/16 04:27:33;;;;;;;13.68;5.85;;;;;;;21.46;47.71;99310.31;5009770;28;20132;-38
2023/06/16 04:30:03;;;;;;;12.77;6.25;;;;;;;21.54;47.34;99308.72;5009814;28;20056;-37
2023/06/16 04:32:36;;;;;;;12.95;5.75;;;;;;;21.49;47.03;99276.53;5026487;28;20079;-37
2023/06/16 04:35:06;;;;;;;10.38;6.03;;;;;;;21.73;46.87;99304.47;5029441;28;20064;-38
2023/06/16 04:37:33;;;;;;;7.80;5.50;;;;;;;21.83;46.30;99308.84;5028044;28;20045;-38
2023/06/16 04:40:00;;;;;;;12.70;6.60;;;;;;;21.94;45.86;99303.47;5028161;28;20064;-37
2023/06/16 04:42:28;;;;;;;11.27;5.97;;;;;;;22.05;45.91;99305.19;5028690;28;20048;-37
2023/06/16 04:44:55;;;;;;;15.77;6.10;;;;;;;22.14;45.89;99312.31;4995779;28;20088;-37
2023/06/16 04:47:23;;;;;;;14.85;6.32;;;;;;;22.22;46.02;99309.84;5025916;28;20464;-37
2023/06/16 04:49:50;;;;;;;14.18;8.15;;;;;;;22.26;46.05;99303.31;5027555;28;20510;-38
2023/06/16 04:52:16;;;;;;;14.00;5.35;;;;;;;22.32;45.89;99309.88;5026662;28;20454;-38
2023/06/16 04:54:42;;;;;;;12.77;6.05;;;;;;;22.38;45.12;99312.81;5028352;28;20064;-37
2023/06/16 04:57:10;;;;;;;10.07;6.18;;;;;;;22.47;44.82;99308.50;5022626;28;20458;-38
2023/06/16 04:59:36;;;;;;;18.45;6.28;;;;;;;22.58;44.51;99310.19;5029503;28;20037;-37
2023/06/16 05:02:02;;;;;;;11.25;5.93;;;;;;;22.72;44.56;99315.94;5009831;28;20536;-37
2023/06/16 05:04:28;;;;;;;15.65;6.70;;;;;;;22.89;44.88;99319.72;5028351;28;20033;-38
2023/06/16 05:06:54;;;;;;;13.75;6.10;;;;;;;23.07;44.71;99315.41;5010717;28;20553;-37
2023/06/16 05:09:21;;;;;;;11.73;7.25;;;;;;;23.21;44.11;99306.19;5011805;28;20073;-37
2023/06/16 05:11:48;;;;;;;9.45;5.57;;;;;;;23.32;43.41;99315.78;5011788;28;20044;-38
2023/06/16 05:14:14;;;;;;;8.55;5.65;;;;;;;23.39;42.94;99324.88;5011605;28;20061;-38
2023/06/16 05:16:41;;;;;;;12.05;5.93;;;;;;;23.49;42.99;99323.06;5008652;28;20606;-38
2023/06/16 05:19:08;;;;;;;10.00;5.68;;;;;;;23.62;43.12;99316.44;5027237;28;20041;-39
2023/06/16 05:21:38;;;;;;;9.60;6.78;;;;;;;23.63;42.60;99310.16;5011643;28;20417;-39
2023/06/16 05:24:05;;;;;;;13.48;6.53;;;;;;;23.86;42.11;99318.63;5011760;28;20072;-39
2023/06/16 05:26:31;;;;;;;11.77;5.88;;;;;;;23.90;41.36;99309.38;5039838;28;20064;-39
2023/06/16 05:28:57;;;;;;;11.57;5.22;;;;;;;24.18;40.85;99322.72;5028206;28;20048;-38
2023/06/16 05:31:25;;;;;;;12.48;5.30;;;;;;;24.34;40.07;99326.38;5028082;28;20528;-39
2023/06/16 05:33:54;;;;;;;13.50;4.65;;;;;;;24.34;39.46;99307.75;5011700;28;20075;-39
2023/06/16 05:36:20;;;;;;;15.13;6.95;;;;;;;24.59;38.76;99329.31;5025894;28;20041;-39
2023/06/16 05:38:46;;;;;;;14.65;6.60;;;;;;;24.71;38.68;99323.59;5018459;28;20098;-41
2023/06/16 05:41:12;;;;;;;11.25;5.97;;;;;;;24.81;38.83;99328.84;5027740;28;20054;-40
2023/06/16 05:43:43;;;;;;;13.68;6.88;;;;;;;24.87;38.88;99325.59;5027983;28;20135;-40
2023/06/16 05:46:09;;;;;;;11.02;6.00;;;;;;;24.93;39.13;99325.03;5024973;28;20052;-40
2023/06/16 05:48:35;;;;;;;16.98;5.78;;;;;;;25.01;39.03;99316.28;5010590;28;20075;-41
2023/06/16 05:51:02;;;;;;;15.57;5.75;;;;;;;25.06;39.15;99314.00;5027074;28;20563;-40
2023/06/16 05:53:28;;;;;;;14.07;5.50;;;;;;;25.12;38.80;99318.72;5028760;28;20049;-40
2023/06/16 05:55:55;;;;;;;10.02;5.63;;;;;;;25.18;38.16;99315.41;5040894;28;20054;-41
2023/06/16 05:58:21;;;;;;;9.70;5.03;;;;;;;25.27;37.03;99318.00;5026709;28;20049;-40
